sensor_id;sensor_type;location;lat;lon;timestamp;P1;durP1;ratioP1;P2;durP2;ratioP2
2658;SDS011;1339;53.304;10.406;2022-11-20T00:00:48;7.35;;;6.15;;
2658;SDS011;1339;53.304;10.406;2022-11-20T00:03:15;8.85;;;6.75;;
2658;SDS011;1339;53.304;10.406;2022-11-20T00:05:42;6.97;;;6.28;;
2658;SDS011;1339;53.304;10.406;2022-11-20T00:08:09;7.32;;;5.85;;
2658;SDS011;1339;53.304;10.406;2022-11-20T00:10:36;8.45;;;5.90;;
2658;SDS011;1339;53.304;10.406;2022-11-20T00:13:04;7.03;;;5.88;;
2658;SDS011;1339;53.304;10.406;2022-11-20T00:15:32;7.90;;;6.55;;
2658;SDS011;1339;53.304;10.406;2022-11-20T00:18:00;6.07;;;5.05;;
2658;SDS011;1339;53.304;10.406;2022-11-20T00:20:27;7.15;;;6.50;;
2658;SDS011;1339;53.304;10.406;2022-11-20T00:22:54;6.65;;;5.97;;
2658;SDS011;1339;53.304;10.406;2022-11-20T00:25:21;6.53;;;5.60;;
2658;SDS011;1339;53.304;10.406;2022-11-20T00:27:48;7.25;;;6.65;;
2658;SDS011;1339;53.304;10.406;2022-11-20T00:30:15;7.30;;;6.32;;
2658;SDS011;1339;53.304;10.406;2022-11-20T00:32:43;7.38;;;5.80;;
2658;SDS011;1339;53.304;10.406;2022-11-20T00:35:10;7.45;;;6.65;;
2658;SDS011;1339;53.304;10.406;2022-11-20T00:37:37;7.57;;;6.75;;
2658;SDS011;1339;53.304;10.406;2022-11-20T00:40:05;6.57;;;6.00;;
2658;SDS011;1339;53.304;10.406;2022-11-20T00:42:32;8.82;;;6.72;;
2658;SDS011;1339;53.304;10.406;2022-11-20T00:44:59;8.32;;;6.55;;
2658;SDS011;1339;53.304;10.406;2022-11-20T00:47:26;7.15;;;6.45;;
2658;SDS011;1339;53.304;10.406;2022-11-20T00:49:55;7.10;;;6.55;;
2658;SDS011;1339;53.304;10.406;2022-11-20T00:52:22;7.38;;;6.53;;
2658;SDS011;1339;53.304;10.406;2022-11-20T00:54:49;8.02;;;7.13;;
2658;SDS011;1339;53.304;10.406;2022-11-20T00:57:16;7.28;;;6.53;;
2658;SDS011;1339;53.304;10.406;2022-11-20T00:59:43;7.57;;;6.88;;
2658;SDS011;1339;53.304;10.406;2022-11-20T01:02:10;9.05;;;6.95;;
2658;SDS011;1339;53.304;10.406;2022-11-20T01:04:37;8.50;;;6.68;;
2658;SDS011;1339;53.304;10.406;2022-11-20T01:07:05;7.95;;;7.15;;
2658;SDS011;1339;53.304;10.406;2022-11-20T01:09:32;6.80;;;6.10;;
2658;SDS011;1339;53.304;10.406;2022-11-20T01:11:59;6.40;;;5.80;;
2658;SDS011;1339;53.304;10.406;2022-11-20T01:14:26;6.78;;;6.13;;
2658;SDS011;1339;53.304;10.406;2022-11-20T01:16:54;9.05;;;7.28;;
2658;SDS011;1339;53.304;10.406;2022-11-20T01:19:22;7.70;;;6.93;;
2658;SDS011;1339;53.304;10.406;2022-11-20T01:21:50;8.73;;;7.20;;
2658;SDS011;1339;53.304;10.406;2022-11-20T01:24:19;7.35;;;6.28;;
2658;SDS011;1339;53.304;10.406;2022-11-20T01:26:47;10.65;;;8.07;;
2658;SDS011;1339;53.304;10.406;2022-11-20T01:29:16;8.43;;;7.55;;
2658;SDS011;1339;53.304;10.406;2022-11-20T01:31:43;9.43;;;7.70;;
2658;SDS011;1339;53.304;10.406;2022-11-20T01:34:11;8.30;;;7.50;;
2658;SDS011;1339;53.304;10.406;2022-11-20T01:36:39;13.98;;;8.20;;
2658;SDS011;1339;53.304;10.406;2022-11-20T01:39:07;7.18;;;5.97;;
2658;SDS011;1339;53.304;10.406;2022-11-20T01:41:35;8.85;;;6.40;;
2658;SDS011;1339;53.304;10.406;2022-11-20T01:44:21;7.35;;;6.53;;
2658;SDS011;1339;53.304;10.406;2022-11-20T01:46:51;7.80;;;7.05;;
2658;SDS011;1339;53.304;10.406;2022-11-20T01:49:20;8.05;;;6.18;;
2658;SDS011;1339;53.304;10.406;2022-11-20T01:51:49;13.90;;;7.57;;
2658;SDS011;1339;53.304;10.406;2022-11-20T01:54:18;8.68;;;6.57;;
2658;SDS011;1339;53.304;10.406;2022-11-20T01:56:47;8.27;;;7.13;;
2658;SDS011;1339;53.304;10.406;2022-11-20T01:59:15;10.27;;;6.53;;
2658;SDS011;1339;53.304;10.406;2022-11-20T02:01:43;7.57;;;5.65;;
2658;SDS011;1339;53.304;10.406;2022-11-20T02:04:10;7.68;;;6.05;;
2658;SDS011;1339;53.304;10.406;2022-11-20T02:06:38;7.15;;;6.40;;
2658;SDS011;1339;53.304;10.406;2022-11-20T02:09:07;7.38;;;6.47;;
2658;SDS011;1339;53.304;10.406;2022-11-20T02:11:34;6.55;;;5.95;;
2658;SDS011;1339;53.304;10.406;2022-11-20T02:14:03;7.53;;;5.20;;
2658;SDS011;1339;53.304;10.406;2022-11-20T02:16:30;7.68;;;6.90;;
2658;SDS011;1339;53.304;10.406;2022-11-20T02:18:58;6.70;;;6.07;;
2658;SDS011;1339;53.304;10.406;2022-11-20T02:21:30;6.80;;;6.13;;
2658;SDS011;1339;53.304;10.406;2022-11-20T02:24:02;5.65;;;5.15;;
2658;SDS011;1339;53.304;10.406;2022-11-20T02:26:30;6.55;;;5.82;;
2658;SDS011;1339;53.304;10.406;2022-11-20T02:28:58;6.05;;;5.55;;
2658;SDS011;1339;53.304;10.406;2022-11-20T02:31:25;11.35;;;6.95;;
2658;SDS011;1339;53.304;10.406;2022-11-20T02:33:55;7.75;;;6.13;;
2658;SDS011;1339;53.304;10.406;2022-11-20T02:36:23;7.75;;;6.60;;
2658;SDS011;1339;53.304;10.406;2022-11-20T02:38:51;6.88;;;6.18;;
2658;SDS011;1339;53.304;10.406;2022-11-20T02:41:19;7.20;;;6.47;;
2658;SDS011;1339;53.304;10.406;2022-11-20T02:43:47;7.05;;;5.78;;
2658;SDS011;1339;53.304;10.406;2022-11-20T02:46:14;9.23;;;6.57;;
2658;SDS011;1339;53.304;10.406;2022-11-20T02:48:41;8.73;;;6.25;;
2658;SDS011;1339;53.304;10.406;2022-11-20T02:51:08;6.63;;;5.93;;
2658;SDS011;1339;53.304;10.406;2022-11-20T02:53:35;6.65;;;5.95;;
2658;SDS011;1339;53.304;10.406;2022-11-20T02:56:02;6.18;;;5.53;;
2658;SDS011;1339;53.304;10.406;2022-11-20T02:58:30;7.70;;;6.55;;
2658;SDS011;1339;53.304;10.406;2022-11-20T03:00:57;6.53;;;5.82;;
2658;SDS011;1339;53.304;10.406;2022-11-20T03:03:24;5.90;;;5.20;;
2658;SDS011;1339;53.304;10.406;2022-11-20T03:05:51;10.02;;;6.70;;
2658;SDS011;1339;53.304;10.406;2022-11-20T03:08:18;8.55;;;6.72;;
2658;SDS011;1339;53.304;10.406;2022-11-20T03:10:45;6.55;;;5.88;;
2658;SDS011;1339;53.304;10.406;2022-11-20T03:13:12;7.38;;;6.43;;
2658;SDS011;1339;53.304;10.406;2022-11-20T03:15:41;8.85;;;6.70;;
2658;SDS011;1339;53.304;10.406;2022-11-20T03:18:08;7.22;;;6.53;;
2658;SDS011;1339;53.304;10.406;2022-11-20T03:20:35;8.00;;;7.20;;
2658;SDS011;1339;53.304;10.406;2022-11-20T03:23:02;8.80;;;6.90;;
2658;SDS011;1339;53.304;10.406;2022-11-20T03:25:29;8.10;;;6.60;;
2658;SDS011;1339;53.304;10.406;2022-11-20T03:27:56;8.98;;;7.70;;
2658;SDS011;1339;53.304;10.406;2022-11-20T03:30:23;8.00;;;7.20;;
2658;SDS011;1339;53.304;10.406;2022-11-20T03:32:53;7.70;;;6.90;;
2658;SDS011;1339;53.304;10.406;2022-11-20T03:35:20;9.45;;;8.07;;
2658;SDS011;1339;53.304;10.406;2022-11-20T03:37:47;9.35;;;7.35;;
2658;SDS011;1339;53.304;10.406;2022-11-20T03:40:15;12.23;;;7.00;;
2658;SDS011;1339;53.304;10.406;2022-11-20T03:42:42;9.43;;;7.78;;
2658;SDS011;1339;53.304;10.406;2022-11-20T03:45:20;9.48;;;7.57;;
2658;SDS011;1339;53.304;10.406;2022-11-20T03:47:47;10.73;;;6.88;;
2658;SDS011;1339;53.304;10.406;2022-11-20T03:50:16;7.22;;;6.05;;
2658;SDS011;1339;53.304;10.406;2022-11-20T03:52:43;10.00;;;8.15;;
2658;SDS011;1339;53.304;10.406;2022-11-20T03:55:16;7.93;;;6.55;;
2658;SDS011;1339;53.304;10.406;2022-11-20T03:57:43;8.93;;;7.90;;
2658;SDS011;1339;53.304;10.406;2022-11-20T04:00:11;9.77;;;6.20;;
2658;SDS011;1339;53.304;10.406;2022-11-20T04:02:38;7.10;;;6.20;;
2658;SDS011;1339;53.304;10.406;2022-11-20T04:05:05;7.30;;;6.60;;
2658;SDS011;1339;53.304;10.406;2022-11-20T04:07:34;8.23;;;7.43;;
2658;SDS011;1339;53.304;10.406;2022-11-20T04:10:02;8.27;;;7.40;;
2658;SDS011;1339;53.304;10.406;2022-11-20T04:12:31;8.02;;;6.50;;
2658;SDS011;1339;53.304;10.406;2022-11-20T04:14:58;8.48;;;7.68;;
2658;SDS011;1339;53.304;10.406;2022-11-20T04:17:25;7.03;;;6.32;;
2658;SDS011;1339;53.304;10.406;2022-11-20T04:19:52;7.60;;;6.90;;
2658;SDS011;1339;53.304;10.406;2022-11-20T04:22:19;7.72;;;7.03;;
2658;SDS011;1339;53.304;10.406;2022-11-20T04:24:47;9.70;;;7.47;;
2658;SDS011;1339;53.304;10.406;2022-11-20T04:27:14;7.40;;;6.60;;
2658;SDS011;1339;53.304;10.406;2022-11-20T04:29:41;7.07;;;6.38;;
2658;SDS011;1339;53.304;10.406;2022-11-20T04:32:09;7.70;;;6.90;;
2658;SDS011;1339;53.304;10.406;2022-11-20T04:34:36;7.72;;;6.40;;
2658;SDS011;1339;53.304;10.406;2022-11-20T04:37:03;8.13;;;7.10;;
2658;SDS011;1339;53.304;10.406;2022-11-20T04:39:30;7.28;;;5.85;;
2658;SDS011;1339;53.304;10.406;2022-11-20T04:41:58;7.35;;;6.65;;
2658;SDS011;1339;53.304;10.406;2022-11-20T04:44:43;8.60;;;6.53;;
2658;SDS011;1339;53.304;10.406;2022-11-20T04:47:10;8.65;;;6.00;;
2658;SDS011;1339;53.304;10.406;2022-11-20T04:49:37;9.38;;;6.97;;
2658;SDS011;1339;53.304;10.406;2022-11-20T04:52:04;5.80;;;5.22;;
2658;SDS011;1339;53.304;10.406;2022-11-20T04:54:31;6.65;;;6.05;;
2658;SDS011;1339;53.304;10.406;2022-11-20T04:56:59;9.20;;;6.88;;
2658;SDS011;1339;53.304;10.406;2022-11-20T04:59:26;8.55;;;7.03;;
2658;SDS011;1339;53.304;10.406;2022-11-20T05:01:53;6.82;;;5.88;;
2658;SDS011;1339;53.304;10.406;2022-11-20T05:04:20;8.07;;;6.45;;
2658;SDS011;1339;53.304;10.406;2022-11-20T05:06:48;8.73;;;7.28;;
2658;SDS011;1339;53.304;10.406;2022-11-20T05:09:15;7.78;;;6.35;;
2658;SDS011;1339;53.304;10.406;2022-11-20T05:11:42;10.90;;;6.05;;
2658;SDS011;1339;53.304;10.406;2022-11-20T05:14:11;10.23;;;6.40;;
2658;SDS011;1339;53.304;10.406;2022-11-20T05:16:38;10.25;;;6.65;;
2658;SDS011;1339;53.304;10.406;2022-11-20T05:19:05;6.93;;;5.95;;
2658;SDS011;1339;53.304;10.406;2022-11-20T05:21:32;7.22;;;6.53;;
2658;SDS011;1339;53.304;10.406;2022-11-20T05:23:59;8.10;;;6.60;;
2658;SDS011;1339;53.304;10.406;2022-11-20T05:26:26;6.50;;;5.95;;
2658;SDS011;1339;53.304;10.406;2022-11-20T05:28:53;6.72;;;6.07;;
2658;SDS011;1339;53.304;10.406;2022-11-20T05:31:22;7.40;;;6.70;;
2658;SDS011;1339;53.304;10.406;2022-11-20T05:33:49;7.88;;;6.65;;
2658;SDS011;1339;53.304;10.406;2022-11-20T05:36:16;9.25;;;7.10;;
2658;SDS011;1339;53.304;10.406;2022-11-20T05:38:44;7.82;;;6.07;;
2658;SDS011;1339;53.304;10.406;2022-11-20T05:41:11;7.65;;;6.82;;
2658;SDS011;1339;53.304;10.406;2022-11-20T05:43:40;11.80;;;6.22;;
2658;SDS011;1339;53.304;10.406;2022-11-20T05:46:07;7.35;;;6.70;;
2658;SDS011;1339;53.304;10.406;2022-11-20T05:48:37;6.38;;;5.72;;
2658;SDS011;1339;53.304;10.406;2022-11-20T05:51:04;9.38;;;7.00;;
2658;SDS011;1339;53.304;10.406;2022-11-20T05:53:32;8.02;;;7.28;;
2658;SDS011;1339;53.304;10.406;2022-11-20T05:55:59;8.30;;;7.30;;
2658;SDS011;1339;53.304;10.406;2022-11-20T05:58:26;7.68;;;6.15;;
2658;SDS011;1339;53.304;10.406;2022-11-20T06:00:53;7.75;;;6.63;;
2658;SDS011;1339;53.304;10.406;2022-11-20T06:03:20;8.00;;;6.18;;
2658;SDS011;1339;53.304;10.406;2022-11-20T06:05:49;9.98;;;8.00;;
2658;SDS011;1339;53.304;10.406;2022-11-20T06:08:16;8.52;;;7.65;;
2658;SDS011;1339;53.304;10.406;2022-11-20T06:10:43;9.88;;;8.98;;
2658;SDS011;1339;53.304;10.406;2022-11-20T06:13:10;9.60;;;8.52;;
2658;SDS011;1339;53.304;10.406;2022-11-20T06:15:37;10.25;;;8.77;;
2658;SDS011;1339;53.304;10.406;2022-11-20T06:18:04;8.63;;;7.82;;
2658;SDS011;1339;53.304;10.406;2022-11-20T06:20:31;9.82;;;8.30;;
2658;SDS011;1339;53.304;10.406;2022-11-20T06:22:59;9.52;;;8.55;;
2658;SDS011;1339;53.304;10.406;2022-11-20T06:25:26;12.07;;;9.27;;
2658;SDS011;1339;53.304;10.406;2022-11-20T06:27:53;12.65;;;10.15;;
2658;SDS011;1339;53.304;10.406;2022-11-20T06:30:21;9.73;;;8.77;;
2658;SDS011;1339;53.304;10.406;2022-11-20T06:32:48;10.20;;;8.27;;
2658;SDS011;1339;53.304;10.406;2022-11-20T06:35:15;10.00;;;8.23;;
2658;SDS011;1339;53.304;10.406;2022-11-20T06:37:42;13.27;;;9.40;;
2658;SDS011;1339;53.304;10.406;2022-11-20T06:40:11;10.60;;;9.35;;
2658;SDS011;1339;53.304;10.406;2022-11-20T06:42:38;11.60;;;10.35;;
2658;SDS011;1339;53.304;10.406;2022-11-20T06:45:05;11.35;;;9.68;;
2658;SDS011;1339;53.304;10.406;2022-11-20T06:47:33;9.52;;;8.63;;
2658;SDS011;1339;53.304;10.406;2022-11-20T06:50:00;10.98;;;9.77;;
2658;SDS011;1339;53.304;10.406;2022-11-20T06:52:27;9.48;;;8.25;;
2658;SDS011;1339;53.304;10.406;2022-11-20T06:54:54;11.07;;;9.93;;
2658;SDS011;1339;53.304;10.406;2022-11-20T06:57:22;10.90;;;9.38;;
2658;SDS011;1339;53.304;10.406;2022-11-20T06:59:49;15.57;;;10.05;;
2658;SDS011;1339;53.304;10.406;2022-11-20T07:02:16;10.55;;;9.45;;
2658;SDS011;1339;53.304;10.406;2022-11-20T07:04:44;11.15;;;10.05;;
2658;SDS011;1339;53.304;10.406;2022-11-20T07:07:11;10.73;;;9.57;;
2658;SDS011;1339;53.304;10.406;2022-11-20T07:09:38;12.07;;;10.88;;
2658;SDS011;1339;53.304;10.406;2022-11-20T07:12:05;12.77;;;10.32;;
2658;SDS011;1339;53.304;10.406;2022-11-20T07:14:33;10.80;;;9.80;;
2658;SDS011;1339;53.304;10.406;2022-11-20T07:17:00;13.25;;;10.60;;
2658;SDS011;1339;53.304;10.406;2022-11-20T07:19:27;15.85;;;11.40;;
2658;SDS011;1339;53.304;10.406;2022-11-20T07:21:54;13.90;;;11.32;;
2658;SDS011;1339;53.304;10.406;2022-11-20T07:24:21;11.38;;;10.20;;
2658;SDS011;1339;53.304;10.406;2022-11-20T07:26:48;12.40;;;11.10;;
2658;SDS011;1339;53.304;10.406;2022-11-20T07:29:15;12.68;;;11.27;;
2658;SDS011;1339;53.304;10.406;2022-11-20T07:31:44;17.42;;;11.93;;
2658;SDS011;1339;53.304;10.406;2022-11-20T07:34:11;13.07;;;10.38;;
2658;SDS011;1339;53.304;10.406;2022-11-20T07:36:38;12.70;;;10.32;;
2658;SDS011;1339;53.304;10.406;2022-11-20T07:39:05;11.52;;;9.93;;
2658;SDS011;1339;53.304;10.406;2022-11-20T07:41:32;11.60;;;9.90;;
2658;SDS011;1339;53.304;10.406;2022-11-20T07:43:59;11.82;;;9.82;;
2658;SDS011;1339;53.304;10.406;2022-11-20T07:46:26;11.82;;;9.07;;
2658;SDS011;1339;53.304;10.406;2022-11-20T07:48:55;12.40;;;10.35;;
2658;SDS011;1339;53.304;10.406;2022-11-20T07:51:22;14.48;;;11.85;;
2658;SDS011;1339;53.304;10.406;2022-11-20T07:53:50;15.40;;;12.57;;
2658;SDS011;1339;53.304;10.406;2022-11-20T07:56:17;16.13;;;11.60;;
2658;SDS011;1339;53.304;10.406;2022-11-20T07:58:44;11.93;;;10.27;;
2658;SDS011;1339;53.304;10.406;2022-11-20T08:01:11;12.25;;;10.10;;
2658;SDS011;1339;53.304;10.406;2022-11-20T08:03:38;11.73;;;9.52;;
2658;SDS011;1339;53.304;10.406;2022-11-20T08:06:07;11.70;;;10.30;;
2658;SDS011;1339;53.304;10.406;2022-11-20T08:08:34;12.05;;;10.70;;
2658;SDS011;1339;53.304;10.406;2022-11-20T08:11:01;11.95;;;10.70;;
2658;SDS011;1339;53.304;10.406;2022-11-20T08:13:46;14.07;;;11.05;;
2658;SDS011;1339;53.304;10.406;2022-11-20T08:16:30;13.60;;;10.05;;
2658;SDS011;1339;53.304;10.406;2022-11-20T08:18:57;10.00;;;8.48;;
2658;SDS011;1339;53.304;10.406;2022-11-20T08:21:26;13.38;;;11.77;;
2658;SDS011;1339;53.304;10.406;2022-11-20T08:23:53;12.75;;;9.93;;
2658;SDS011;1339;53.304;10.406;2022-11-20T08:26:20;14.85;;;11.30;;
2658;SDS011;1339;53.304;10.406;2022-11-20T08:28:48;11.70;;;10.13;;
2658;SDS011;1339;53.304;10.406;2022-11-20T08:31:15;11.57;;;10.07;;
2658;SDS011;1339;53.304;10.406;2022-11-20T08:33:42;16.60;;;11.02;;
2658;SDS011;1339;53.304;10.406;2022-11-20T08:36:09;12.82;;;10.68;;
2658;SDS011;1339;53.304;10.406;2022-11-20T08:38:38;12.88;;;10.95;;
2658;SDS011;1339;53.304;10.406;2022-11-20T08:41:05;12.57;;;9.63;;
2658;SDS011;1339;53.304;10.406;2022-11-20T08:43:52;11.05;;;9.35;;
2658;SDS011;1339;53.304;10.406;2022-11-20T08:46:19;12.38;;;10.48;;
2658;SDS011;1339;53.304;10.406;2022-11-20T08:48:46;11.52;;;10.32;;
2658;SDS011;1339;53.304;10.406;2022-11-20T08:51:14;12.82;;;11.50;;
2658;SDS011;1339;53.304;10.406;2022-11-20T08:53:42;13.65;;;9.73;;
2658;SDS011;1339;53.304;10.406;2022-11-20T08:56:09;13.00;;;10.80;;
2658;SDS011;1339;53.304;10.406;2022-11-20T08:58:36;13.10;;;10.60;;
2658;SDS011;1339;53.304;10.406;2022-11-20T09:01:04;12.93;;;10.20;;
2658;SDS011;1339;53.304;10.406;2022-11-20T09:03:31;10.48;;;9.35;;
2658;SDS011;1339;53.304;10.406;2022-11-20T09:05:58;11.65;;;9.48;;
2658;SDS011;1339;53.304;10.406;2022-11-20T09:08:26;10.13;;;9.00;;
2658;SDS011;1339;53.304;10.406;2022-11-20T09:10:54;10.82;;;9.77;;
2658;SDS011;1339;53.304;10.406;2022-11-20T09:13:22;12.15;;;10.23;;
2658;SDS011;1339;53.304;10.406;2022-11-20T09:15:52;10.55;;;9.45;;
2658;SDS011;1339;53.304;10.406;2022-11-20T09:18:19;10.38;;;9.18;;
2658;SDS011;1339;53.304;10.406;2022-11-20T09:20:46;11.13;;;9.55;;
2658;SDS011;1339;53.304;10.406;2022-11-20T09:23:13;11.32;;;10.20;;
2658;SDS011;1339;53.304;10.406;2022-11-20T09:25:41;11.65;;;10.55;;
2658;SDS011;1339;53.304;10.406;2022-11-20T09:28:09;14.52;;;9.57;;
2658;SDS011;1339;53.304;10.406;2022-11-20T09:30:36;14.38;;;10.00;;
2658;SDS011;1339;53.304;10.406;2022-11-20T09:33:03;13.85;;;11.07;;
2658;SDS011;1339;53.304;10.406;2022-11-20T09:35:30;15.73;;;10.38;;
2658;SDS011;1339;53.304;10.406;2022-11-20T09:37:58;14.45;;;12.07;;
2658;SDS011;1339;53.304;10.406;2022-11-20T09:40:25;14.57;;;11.98;;
2658;SDS011;1339;53.304;10.406;2022-11-20T09:42:54;10.90;;;9.80;;
2658;SDS011;1339;53.304;10.406;2022-11-20T09:45:24;12.20;;;10.70;;
2658;SDS011;1339;53.304;10.406;2022-11-20T09:47:59;13.05;;;10.77;;
2658;SDS011;1339;53.304;10.406;2022-11-20T09:50:30;16.63;;;10.88;;
2658;SDS011;1339;53.304;10.406;2022-11-20T09:53:02;12.30;;;11.13;;
2658;SDS011;1339;53.304;10.406;2022-11-20T09:55:31;13.35;;;11.50;;
2658;SDS011;1339;53.304;10.406;2022-11-20T09:57:58;12.40;;;11.20;;
2658;SDS011;1339;53.304;10.406;2022-11-20T10:00:27;9.70;;;8.70;;
2658;SDS011;1339;53.304;10.406;2022-11-20T10:02:56;10.55;;;9.50;;
2658;SDS011;1339;53.304;10.406;2022-11-20T10:05:27;10.73;;;9.68;;
2658;SDS011;1339;53.304;10.406;2022-11-20T10:07:55;10.23;;;8.98;;
2658;SDS011;1339;53.304;10.406;2022-11-20T10:10:29;15.90;;;10.55;;
2658;SDS011;1339;53.304;10.406;2022-11-20T10:13:01;12.73;;;9.15;;
2658;SDS011;1339;53.304;10.406;2022-11-20T10:15:36;10.65;;;8.73;;
2658;SDS011;1339;53.304;10.406;2022-11-20T10:18:09;9.45;;;8.13;;
2658;SDS011;1339;53.304;10.406;2022-11-20T10:20:40;9.00;;;8.10;;
2658;SDS011;1339;53.304;10.406;2022-11-20T10:23:16;8.23;;;7.25;;
2658;SDS011;1339;53.304;10.406;2022-11-20T10:25:49;9.35;;;7.70;;
2658;SDS011;1339;53.304;10.406;2022-11-20T10:28:23;9.20;;;7.55;;
2658;SDS011;1339;53.304;10.406;2022-11-20T10:30:57;8.60;;;7.53;;
2658;SDS011;1339;53.304;10.406;2022-11-20T10:33:26;8.43;;;7.63;;
2658;SDS011;1339;53.304;10.406;2022-11-20T10:35:55;8.30;;;7.38;;
2658;SDS011;1339;53.304;10.406;2022-11-20T10:38:29;9.82;;;8.82;;
2658;SDS011;1339;53.304;10.406;2022-11-20T10:41:00;9.07;;;8.18;;
2658;SDS011;1339;53.304;10.406;2022-11-20T10:43:42;8.55;;;7.80;;
2658;SDS011;1339;53.304;10.406;2022-11-20T10:46:12;9.02;;;8.15;;
2658;SDS011;1339;53.304;10.406;2022-11-20T10:48:41;8.73;;;7.95;;
2658;SDS011;1339;53.304;10.406;2022-11-20T10:51:15;8.48;;;6.90;;
2658;SDS011;1339;53.304;10.406;2022-11-20T10:56:31;9.20;;;7.80;;
2658;SDS011;1339;53.304;10.406;2022-11-20T10:59:03;7.72;;;7.10;;
2658;SDS011;1339;53.304;10.406;2022-11-20T11:01:39;7.88;;;7.28;;
2658;SDS011;1339;53.304;10.406;2022-11-20T11:04:07;7.85;;;7.03;;
2658;SDS011;1339;53.304;10.406;2022-11-20T11:06:35;10.07;;;7.18;;
2658;SDS011;1339;53.304;10.406;2022-11-20T11:09:04;6.95;;;6.25;;
2658;SDS011;1339;53.304;10.406;2022-11-20T11:11:33;6.45;;;5.88;;
2658;SDS011;1339;53.304;10.406;2022-11-20T11:14:04;5.93;;;4.45;;
2658;SDS011;1339;53.304;10.406;2022-11-20T11:16:33;4.97;;;4.57;;
2658;SDS011;1339;53.304;10.406;2022-11-20T11:19:04;4.65;;;4.25;;
2658;SDS011;1339;53.304;10.406;2022-11-20T11:21:31;5.47;;;4.82;;
2658;SDS011;1339;53.304;10.406;2022-11-20T11:23:59;6.22;;;5.60;;
2658;SDS011;1339;53.304;10.406;2022-11-20T11:26:26;4.55;;;4.15;;
2658;SDS011;1339;53.304;10.406;2022-11-20T11:28:55;5.35;;;4.95;;
2658;SDS011;1339;53.304;10.406;2022-11-20T11:31:22;4.85;;;4.45;;
2658;SDS011;1339;53.304;10.406;2022-11-20T11:33:51;4.88;;;4.38;;
2658;SDS011;1339;53.304;10.406;2022-11-20T11:36:19;4.35;;;3.95;;
2658;SDS011;1339;53.304;10.406;2022-11-20T11:38:48;4.43;;;4.10;;
2658;SDS011;1339;53.304;10.406;2022-11-20T11:41:17;5.15;;;4.75;;
2658;SDS011;1339;53.304;10.406;2022-11-20T11:43:49;4.40;;;3.92;;
2658;SDS011;1339;53.304;10.406;2022-11-20T11:46:35;3.90;;;3.60;;
2658;SDS011;1339;53.304;10.406;2022-11-20T11:49:11;4.68;;;4.30;;
2658;SDS011;1339;53.304;10.406;2022-11-20T11:51:41;5.65;;;5.15;;
2658;SDS011;1339;53.304;10.406;2022-11-20T11:54:14;6.40;;;5.65;;
2658;SDS011;1339;53.304;10.406;2022-11-20T11:56:43;5.65;;;5.25;;
2658;SDS011;1339;53.304;10.406;2022-11-20T11:59:11;7.65;;;5.70;;
2658;SDS011;1339;53.304;10.406;2022-11-20T12:01:41;6.10;;;5.60;;
2658;SDS011;1339;53.304;10.406;2022-11-20T12:04:21;6.60;;;6.00;;
2658;SDS011;1339;53.304;10.406;2022-11-20T12:06:51;5.95;;;5.55;;
2658;SDS011;1339;53.304;10.406;2022-11-20T12:09:20;6.60;;;6.10;;
2658;SDS011;1339;53.304;10.406;2022-11-20T12:11:51;6.70;;;6.20;;
2658;SDS011;1339;53.304;10.406;2022-11-20T12:14:21;6.80;;;6.20;;
2658;SDS011;1339;53.304;10.406;2022-11-20T12:16:51;7.00;;;6.30;;
2658;SDS011;1339;53.304;10.406;2022-11-20T12:19:21;7.63;;;6.97;;
2658;SDS011;1339;53.304;10.406;2022-11-20T12:21:52;8.15;;;7.35;;
2658;SDS011;1339;53.304;10.406;2022-11-20T12:27:08;6.78;;;6.18;;
2658;SDS011;1339;53.304;10.406;2022-11-20T12:29:43;6.43;;;5.82;;
2658;SDS011;1339;53.304;10.406;2022-11-20T12:32:22;6.47;;;5.97;;
2658;SDS011;1339;53.304;10.406;2022-11-20T12:34:58;6.88;;;6.28;;
2658;SDS011;1339;53.304;10.406;2022-11-20T12:37:33;7.20;;;6.50;;
2658;SDS011;1339;53.304;10.406;2022-11-20T12:40:08;5.55;;;5.05;;
2658;SDS011;1339;53.304;10.406;2022-11-20T12:42:42;6.13;;;5.63;;
2658;SDS011;1339;53.304;10.406;2022-11-20T12:48:24;7.60;;;6.05;;
2658;SDS011;1339;53.304;10.406;2022-11-20T12:50:59;7.45;;;5.72;;
2658;SDS011;1339;53.304;10.406;2022-11-20T12:53:33;6.70;;;6.20;;
2658;SDS011;1339;53.304;10.406;2022-11-20T12:56:03;5.95;;;5.45;;
2658;SDS011;1339;53.304;10.406;2022-11-20T12:58:35;6.40;;;5.90;;
2658;SDS011;1339;53.304;10.406;2022-11-20T13:01:05;5.70;;;5.28;;
2658;SDS011;1339;53.304;10.406;2022-11-20T13:03:55;6.22;;;5.72;;
2658;SDS011;1339;53.304;10.406;2022-11-20T13:06:26;6.15;;;5.65;;
2658;SDS011;1339;53.304;10.406;2022-11-20T13:08:54;8.30;;;6.10;;
2658;SDS011;1339;53.304;10.406;2022-11-20T13:11:24;5.53;;;5.03;;
2658;SDS011;1339;53.304;10.406;2022-11-20T13:16:24;5.57;;;5.07;;
2658;SDS011;1339;53.304;10.406;2022-11-20T13:18:54;4.82;;;4.43;;
2658;SDS011;1339;53.304;10.406;2022-11-20T13:21:22;4.75;;;4.45;;
2658;SDS011;1339;53.304;10.406;2022-11-20T13:23:51;4.38;;;4.07;;
2658;SDS011;1339;53.304;10.406;2022-11-20T13:26:19;5.13;;;4.63;;
2658;SDS011;1339;53.304;10.406;2022-11-20T13:28:48;4.60;;;4.20;;
2658;SDS011;1339;53.304;10.406;2022-11-20T13:31:27;4.50;;;4.10;;
2658;SDS011;1339;53.304;10.406;2022-11-20T13:33:55;4.22;;;3.92;;
2658;SDS011;1339;53.304;10.406;2022-11-20T13:36:24;4.40;;;3.95;;
2658;SDS011;1339;53.304;10.406;2022-11-20T13:38:53;5.78;;;5.28;;
2658;SDS011;1339;53.304;10.406;2022-11-20T13:41:24;5.20;;;4.80;;
2658;SDS011;1339;53.304;10.406;2022-11-20T13:43:58;4.57;;;4.20;;
2658;SDS011;1339;53.304;10.406;2022-11-20T13:46:34;5.43;;;4.97;;
2658;SDS011;1339;53.304;10.406;2022-11-20T13:49:05;4.53;;;4.13;;
2658;SDS011;1339;53.304;10.406;2022-11-20T13:51:34;5.05;;;4.55;;
2658;SDS011;1339;53.304;10.406;2022-11-20T13:54:14;6.25;;;4.38;;
2658;SDS011;1339;53.304;10.406;2022-11-20T13:56:47;5.97;;;5.53;;
2658;SDS011;1339;53.304;10.406;2022-11-20T13:59:24;4.93;;;4.47;;
2658;SDS011;1339;53.304;10.406;2022-11-20T14:01:54;4.72;;;4.22;;
2658;SDS011;1339;53.304;10.406;2022-11-20T14:04:23;4.43;;;4.03;;
2658;SDS011;1339;53.304;10.406;2022-11-20T14:06:52;5.63;;;4.35;;
2658;SDS011;1339;53.304;10.406;2022-11-20T14:09:27;4.25;;;3.95;;
2658;SDS011;1339;53.304;10.406;2022-11-20T14:11:55;5.05;;;4.60;;
2658;SDS011;1339;53.304;10.406;2022-11-20T14:14:23;5.35;;;4.85;;
2658;SDS011;1339;53.304;10.406;2022-11-20T14:16:51;5.18;;;4.68;;
2658;SDS011;1339;53.304;10.406;2022-11-20T14:19:23;4.95;;;4.55;;
2658;SDS011;1339;53.304;10.406;2022-11-20T14:21:52;5.07;;;4.68;;
2658;SDS011;1339;53.304;10.406;2022-11-20T14:24:20;5.00;;;4.50;;
2658;SDS011;1339;53.304;10.406;2022-11-20T14:26:49;5.07;;;4.68;;
2658;SDS011;1339;53.304;10.406;2022-11-20T14:29:17;4.97;;;4.57;;
2658;SDS011;1339;53.304;10.406;2022-11-20T14:31:45;5.20;;;4.80;;
2658;SDS011;1339;53.304;10.406;2022-11-20T14:34:13;4.70;;;4.30;;
2658;SDS011;1339;53.304;10.406;2022-11-20T14:36:42;5.03;;;3.90;;
2658;SDS011;1339;53.304;10.406;2022-11-20T14:39:10;4.50;;;3.65;;
2658;SDS011;1339;53.304;10.406;2022-11-20T14:41:37;4.50;;;3.85;;
2658;SDS011;1339;53.304;10.406;2022-11-20T14:44:06;3.90;;;3.50;;
2658;SDS011;1339;53.304;10.406;2022-11-20T14:46:35;3.95;;;3.65;;
2658;SDS011;1339;53.304;10.406;2022-11-20T14:49:02;3.35;;;3.05;;
2658;SDS011;1339;53.304;10.406;2022-11-20T14:51:30;4.18;;;3.88;;
2658;SDS011;1339;53.304;10.406;2022-11-20T14:54:07;4.70;;;4.20;;
2658;SDS011;1339;53.304;10.406;2022-11-20T14:56:35;4.60;;;4.25;;
2658;SDS011;1339;53.304;10.406;2022-11-20T14:59:02;4.05;;;3.65;;
2658;SDS011;1339;53.304;10.406;2022-11-20T15:01:31;4.13;;;3.25;;
2658;SDS011;1339;53.304;10.406;2022-11-20T15:03:59;5.10;;;4.60;;
2658;SDS011;1339;53.304;10.406;2022-11-20T15:06:27;4.35;;;3.95;;
2658;SDS011;1339;53.304;10.406;2022-11-20T15:08:54;4.60;;;4.20;;
2658;SDS011;1339;53.304;10.406;2022-11-20T15:11:23;4.60;;;3.55;;
2658;SDS011;1339;53.304;10.406;2022-11-20T15:13:52;4.95;;;4.47;;
2658;SDS011;1339;53.304;10.406;2022-11-20T15:16:20;5.88;;;4.35;;